Time;durP1;ratioP1;P1;durP2;ratioP2;P2;SDS_P1;SDS_P2;PMS_P1;PMS_P2;Temp;Humidity;BMP_temperature;BMP_pressure;BME280_temperature;BME280_humidity;BME280_pressure;Samples;Min_cycle;Max_cycle;Signal;HPM_P1;HPM_P2
2022/06/14 00:01:45;;;;;;;7.85;1.85;;;15.10;93.80;;;;;;5029575;28;20052;-67
2022/06/14 00:04:10;;;;;;;6.20;2.05;;;15.10;94.00;;;;;;5031141;28;20104;-67
2022/06/14 00:06:36;;;;;;;10.70;1.98;;;15.10;94.20;;;;;;5030668;28;20129;-67
2022/06/14 00:09:02;;;;;;;5.32;1.70;;;15.10;94.20;;;;;;5030843;28;20049;-67
2022/06/14 00:11:34;;;;;;;7.28;1.73;;;15.10;94.40;;;;;;5030857;28;20087;-67
2022/06/14 00:14:03;;;;;;;7.57;2.00;;;15.00;94.40;;;;;;5030823;28;20095;-67
2022/06/14 00:16:31;;;;;;;5.70;1.50;;;15.00;94.60;;;;;;5030755;28;20026;-67
2022/06/14 00:18:57;;;;;;;6.68;1.77;;;14.90;94.60;;;;;;5030569;28;20110;-67
2022/06/14 00:21:24;;;;;;;8.23;1.92;;;14.80;94.80;;;;;;5031072;28;20038;-67
2022/06/14 00:23:50;;;;;;;7.68;2.10;;;14.80;94.90;;;;;;5030934;28;20394;-66
2022/06/14 00:26:16;;;;;;;5.53;1.80;;;14.80;95.00;;;;;;5030887;28;20030;-66
2022/06/14 00:28:43;;;;;;;7.93;2.00;;;14.70;95.00;;;;;;5030994;28;20026;-67
2022/06/14 00:31:11;;;;;;;7.38;2.13;;;14.60;95.20;;;;;;5031120;28;20030;-66
2022/06/14 00:33:37;;;;;;;8.32;1.83;;;14.60;95.40;;;;;;5030868;28;20045;-66
2022/06/14 00:36:07;;;;;;;6.50;2.03;;;14.70;95.50;;;;;;5030807;28;20084;-66
2022/06/14 00:38:34;;;;;;;8.85;1.80;;;14.60;95.60;;;;;;5030569;28;20026;-66
2022/06/14 00:41:01;;;;;;;8.35;2.45;;;14.60;95.70;;;;;;5030890;28;20401;-67
2022/06/14 00:43:29;;;;;;;7.57;2.10;;;14.60;95.90;;;;;;5097209;22;20021;-67
2022/06/14 00:46:20;;;;;;;5.20;1.80;;;14.50;96.00;;;;;;4990116;28;20043;-67
2022/06/14 00:48:53;;;;;;;5.43;1.90;;;14.50;96.10;;;;;;4991299;28;20038;-67
2022/06/14 00:51:24;;;;;;;7.28;1.98;;;14.50;96.20;;;;;;4991336;28;20061;-67
2022/06/14 00:53:54;;;;;;;7.43;2.10;;;14.50;96.30;;;;;;4991566;28;20041;-67
2022/06/14 00:56:57;;;;;;;6.15;2.10;;;14.50;96.40;;;;;;4990144;28;20127;-67
2022/06/14 00:59:32;;;;;;;8.23;1.88;;;14.50;96.40;;;;;;4991721;28;20483;-68
2022/06/14 01:02:08;;;;;;;10.10;2.03;;;14.50;96.40;;;;;;4994269;28;20038;-68
2022/06/14 01:04:34;;;;;;;6.75;1.90;;;14.50;96.40;;;;;;4997420;28;20542;-68
2022/06/14 01:07:09;;;;;;;5.60;1.75;;;14.30;96.60;;;;;;4996386;28;20069;-68
2022/06/14 01:09:46;;;;;;;4.97;1.90;;;14.40;96.80;;;;;;4996035;28;20488;-68
2022/06/14 01:12:19;;;;;;;10.60;2.10;;;14.50;96.80;;;;;;4995395;28;20038;-68
2022/06/14 01:14:55;;;;;;;9.65;2.25;;;14.40;96.70;;;;;;4995440;28;20120;-68
2022/06/14 01:17:22;;;;;;;7.32;1.80;;;14.30;96.90;;;;;;4994920;28;20053;-68
2022/06/14 01:19:48;;;;;;;6.40;2.10;;;14.30;97.10;;;;;;4994705;28;20088;-68
2022/06/14 01:22:14;;;;;;;6.57;1.92;;;14.20;97.20;;;;;;4994940;28;20480;-68
2022/06/14 01:24:42;;;;;;;5.72;1.80;;;14.20;97.30;;;;;;4995035;28;20030;-67
2022/06/14 01:27:12;;;;;;;7.35;2.38;;;14.10;97.40;;;;;;4994660;28;20030;-68
2022/06/14 01:29:42;;;;;;;6.97;1.98;;;14.10;97.40;;;;;;4994753;28;20185;-68
2022/06/14 01:32:12;;;;;;;10.50;2.42;;;14.10;97.60;;;;;;4994940;28;20105;-68
2022/06/14 01:34:42;;;;;;;7.97;2.45;;;14.10;97.70;;;;;;4994818;28;20064;-67
2022/06/14 01:37:09;;;;;;;8.10;1.90;;;14.00;97.80;;;;;;4994585;28;20030;-67
2022/06/14 01:39:36;;;;;;;9.02;2.13;;;14.00;98.00;;;;;;4994555;28;20508;-68
2022/06/14 01:42:15;;;;;;;6.68;2.00;;;14.00;98.20;;;;;;4994507;28;20065;-67
2022/06/14 01:44:57;;;;;;;8.10;2.33;;;13.90;98.30;;;;;;4994667;28;20034;-68
2022/06/14 01:47:49;;;;;;;7.43;1.85;;;13.90;98.30;;;;;;4993200;28;20030;-68
2022/06/14 01:53:50;;;;;;;7.90;1.80;;;13.90;98.50;;;;;;4994431;28;20037;-68
2022/06/14 01:56:23;;;;;;;7.30;2.10;;;13.90;98.50;;;;;;4994243;28;20038;-68
2022/06/14 01:58:54;;;;;;;7.10;1.90;;;13.90;98.60;;;;;;4994017;28;20130;-68
2022/06/14 02:01:35;;;;;;;7.65;2.60;;;13.90;98.70;;;;;;4994276;28;20030;-68
2022/06/14 02:07:07;;;;;;;9.70;2.50;;;13.80;98.90;;;;;;4993794;28;20105;-68
2022/06/14 02:09:42;;;;;;;5.43;2.42;;;13.80;99.00;;;;;;4993932;28;20037;-68
2022/06/14 02:12:13;;;;;;;8.40;2.50;;;13.80;99.10;;;;;;4993546;28;20033;-68
2022/06/14 02:14:48;;;;;;;7.18;1.80;;;13.80;99.10;;;;;;4993928;28;20034;-67
2022/06/14 02:17:22;;;;;;;6.38;1.95;;;13.80;99.20;;;;;;4993698;28;20042;-68
2022/06/14 02:19:57;;;;;;;6.07;1.85;;;13.80;99.20;;;;;;4993503;28;20030;-69
2022/06/14 02:22:41;;;;;;;7.18;2.20;;;13.70;99.40;;;;;;4992533;28;20022;-69
2022/06/14 02:25:12;;;;;;;7.47;2.20;;;13.60;99.50;;;;;;4993630;28;20042;-69
2022/06/14 02:28:17;;;;;;;8.48;2.20;;;13.60;99.70;;;;;;4993487;28;20030;-69
2022/06/14 02:31:10;;;;;;;6.30;2.55;;;13.70;99.80;;;;;;4993214;28;20030;-69
2022/06/14 02:33:48;;;;;;;9.70;2.67;;;13.70;99.90;;;;;;4993885;28;20035;-69
2022/06/14 02:36:25;;;;;;;6.00;2.13;;;13.70;99.90;;;;;;4993363;28;20072;-69
2022/06/14 02:38:59;;;;;;;6.53;1.98;;;13.60;99.90;;;;;;4993082;28;20041;-69
2022/06/14 02:41:44;;;;;;;6.35;2.13;;;13.60;99.90;;;;;;4993252;28;20033;-68
2022/06/14 02:44:22;;;;;;;7.65;2.03;;;13.60;99.90;;;;;;4993245;28;20038;-69
2022/06/14 02:47:27;;;;;;;7.00;2.38;;;13.60;99.90;;;;;;4993345;28;20026;-68
2022/06/14 02:49:59;;;;;;;6.40;2.03;;;13.60;99.90;;;;;;4951929;29;20050;-68
2022/06/14 02:52:28;;;;;;;4.55;2.40;;;13.60;99.90;;;;;;4987487;28;20450;-69
2022/06/14 02:55:12;;;;;;;7.93;2.15;;;13.60;99.90;;;;;;4991799;28;20130;-69
2022/06/14 02:57:48;;;;;;;7.95;2.22;;;13.60;99.90;;;;;;4991604;28;20068;-68
2022/06/14 03:00:34;;;;;;;7.25;2.35;;;13.60;99.90;;;;;;4992690;28;20030;-68
2022/06/14 03:03:19;;;;;;;6.22;1.85;;;13.50;99.90;;;;;;4992918;28;20097;-68
2022/06/14 03:05:50;;;;;;;5.70;2.00;;;13.50;99.90;;;;;;4992728;28;20498;-69
2022/06/14 03:08:26;;;;;;;7.10;1.95;;;13.40;99.90;;;;;;4992991;28;20035;-69
2022/06/14 03:11:48;;;;;;;6.60;2.33;;;13.40;99.90;;;;;;4992555;28;20081;-68
2022/06/14 03:14:34;;;;;;;4.82;2.13;;;13.40;99.90;;;;;;4951445;29;20027;-68
2022/06/14 03:17:19;;;;;;;8.43;2.13;;;13.50;99.90;;;;;;4989524;28;20415;-68
2022/06/14 03:20:10;;;;;;;6.65;2.28;;;13.40;99.90;;;;;;4992338;28;20038;-68
2022/06/14 03:22:36;;;;;;;6.97;2.50;;;13.30;99.90;;;;;;4991201;28;20498;-68
2022/06/14 03:25:25;;;;;;;7.82;2.42;;;13.30;99.90;;;;;;4991763;28;20037;-68
2022/06/14 03:27:56;;;;;;;7.00;2.35;;;13.20;99.90;;;;;;4992190;28;20026;-68
2022/06/14 03:30:27;;;;;;;7.43;2.35;;;13.30;99.90;;;;;;4992057;28;20036;-68
2022/06/14 03:33:06;;;;;;;7.93;2.80;;;13.30;99.90;;;;;;4979814;28;20105;-69
2022/06/14 03:35:43;;;;;;;;;;;13.30;99.90;;;;;;4973715;28;20137;-69
2022/06/14 03:38:35;;;;;;;6.57;2.05;;;13.30;99.90;;;;;;4991546;28;19915;-68
2022/06/14 03:41:02;;;;;;;7.72;2.20;;;13.30;99.90;;;;;;4985649;28;20046;-69
2022/06/14 03:43:31;;;;;;;7.80;2.67;;;13.30;99.90;;;;;;4991149;28;20034;-68
2022/06/14 03:45:57;;;;;;;;;;;13.40;99.90;;;;;;4991313;28;20693;-69
2022/06/14 03:48:24;;;;;;;7.97;2.65;;;13.50;99.90;;;;;;4991020;28;19909;-69
2022/06/14 03:51:18;;;;;;;5.47;2.50;;;13.50;99.90;;;;;;4989886;28;20225;-69
2022/06/14 03:53:50;;;;;;;6.03;2.38;;;13.50;99.90;;;;;;4991035;28;20085;-70
2022/06/14 03:56:46;;;;;;;7.40;2.30;;;13.40;99.90;;;;;;4991062;28;20110;-69
2022/06/14 03:59:21;;;;;;;8.93;2.70;;;13.40;99.90;;;;;;4990422;28;20034;-70
2022/06/14 04:02:05;;;;;;;8.02;2.70;;;13.50;99.90;;;;;;4990939;28;20433;-69
2022/06/14 04:05:06;;;;;;;6.82;2.90;;;13.40;99.90;;;;;;4990222;28;20062;-69
2022/06/14 04:08:04;;;;;;;5.85;2.53;;;13.30;99.90;;;;;;4978436;28;20046;-69
2022/06/14 04:10:42;;;;;;;6.55;2.80;;;13.30;99.90;;;;;;4990665;28;20552;-69
2022/06/14 04:13:38;;;;;;;9.43;3.15;;;13.40;99.90;;;;;;4990624;28;20399;-70
2022/06/14 04:16:17;;;;;;;7.20;2.78;;;13.40;99.90;;;;;;4989234;28;20049;-68
2022/06/14 04:18:53;;;;;;;6.85;2.78;;;13.40;99.90;;;;;;4989937;28;20089;-69
2022/06/14 04:21:47;;;;;;;6.53;2.80;;;13.40;99.90;;;;;;4990691;28;20034;-69
2022/06/14 04:24:37;;;;;;;10.95;3.75;;;13.50;99.90;;;;;;4990505;28;20027;-69
2022/06/14 04:27:12;;;;;;;7.75;3.50;;;13.50;99.90;;;;;;4990495;28;20031;-68
2022/06/14 04:29:42;;;;;;;8.38;3.33;;;13.60;99.90;;;;;;4990323;28;20652;-69
2022/06/14 04:32:33;;;;;;;8.77;3.10;;;13.70;99.90;;;;;;4989068;28;20042;-69
2022/06/14 04:35:01;;;;;;;8.13;3.25;;;13.80;99.90;;;;;;4990284;28;20041;-68
2022/06/14 04:37:38;;;;;;;10.60;3.30;;;13.90;99.90;;;;;;4990001;28;20359;-68
2022/06/14 04:40:11;;;;;;;8.40;3.60;;;13.90;99.90;;;;;;4990247;28;20106;-69
2022/06/14 04:43:12;;;;;;;9.73;3.13;;;14.00;99.90;;;;;;4990196;28;20029;-69
2022/06/14 04:45:55;;;;;;;10.95;3.50;;;14.10;99.90;;;;;;4978580;28;20054;-69
2022/06/14 04:48:28;;;;;;;13.73;3.67;;;14.10;99.90;;;;;;4989873;28;20034;-69
2022/06/14 04:51:02;;;;;;;9.98;3.63;;;14.20;99.90;;;;;;4990731;28;20054;-70
2022/06/14 04:53:40;;;;;;;13.52;4.18;;;14.30;99.90;;;;;;4991275;28;20427;-68
2022/06/14 04:56:20;;;;;;;8.95;3.67;;;14.30;99.90;;;;;;4990688;28;20031;-68
2022/06/14 04:59:06;;;;;;;8.02;3.40;;;14.30;99.90;;;;;;4989989;28;20038;-68
2022/06/14 05:01:41;;;;;;;10.75;3.40;;;14.40;99.90;;;;;;4990054;28;20042;-68
2022/06/14 05:04:22;;;;;;;12.23;3.50;;;14.40;99.90;;;;;;4989740;28;20152;-68
2022/06/14 05:06:56;;;;;;;10.25;3.70;;;14.50;99.90;;;;;;4972073;28;20181;-68
2022/06/14 05:09:27;;;;;;;11.05;3.10;;;14.50;99.90;;;;;;4990425;28;20455;-68
2022/06/14 05:12:06;;;;;;;13.80;3.00;;;14.60;99.90;;;;;;4990365;28;20027;-68
2022/06/14 05:14:41;;;;;;;11.13;3.30;;;14.60;99.90;;;;;;4988742;28;20609;-68
2022/06/14 05:17:42;;;;;;;10.23;3.55;;;14.60;99.90;;;;;;4990265;28;20037;-68
2022/06/14 05:20:23;;;;;;;8.45;3.15;;;14.70;99.90;;;;;;4982956;28;20109;-68
2022/06/14 05:23:15;;;;;;;12.45;4.00;;;14.70;99.90;;;;;;4989059;28;20030;-68
2022/06/14 05:26:05;;;;;;;9.95;2.85;;;14.70;99.90;;;;;;4984383;28;20435;-68
2022/06/14 05:28:49;;;;;;;9.00;3.90;;;14.80;99.90;;;;;;4988350;28;20023;-68
2022/06/14 05:31:39;;;;;;;8.02;3.25;;;14.80;99.90;;;;;;4988781;28;20030;-68
2022/06/14 05:34:30;;;;;;;8.60;3.00;;;14.80;99.90;;;;;;4984794;28;20049;-68
2022/06/14 05:37:09;;;;;;;8.85;2.70;;;14.90;99.90;;;;;;4987095;28;20030;-68
2022/06/14 05:39:40;;;;;;;;;;;14.90;99.90;;;;;;4990390;28;20035;-68
2022/06/14 05:42:20;;;;;;;9.63;2.78;;;15.00;99.90;;;;;;5005589;28;19909;-68
2022/06/14 05:44:51;;;;;;;8.10;2.42;;;15.00;99.90;;;;;;4990203;28;20034;-68
2022/06/14 05:47:36;;;;;;;9.80;2.58;;;15.10;99.90;;;;;;4991679;28;20022;-68
2022/06/14 05:50:16;;;;;;;12.05;3.60;;;15.10;99.90;;;;;;4994082;28;20057;-68
2022/06/14 05:52:47;;;;;;;9.38;3.33;;;15.20;99.90;;;;;;4993580;28;20035;-68
2022/06/14 05:55:19;;;;;;;12.60;3.15;;;15.20;99.90;;;;;;4993818;28;20026;-68
2022/06/14 05:58:00;;;;;;;8.48;2.95;;;15.20;99.90;;;;;;4993165;28;20505;-68
2022/06/14 06:00:47;;;;;;;10.55;3.10;;;15.30;99.90;;;;;;4993366;28;20035;-68
2022/06/14 06:03:20;;;;;;;10.80;2.97;;;15.30;99.90;;;;;;4992655;28;20041;-68
2022/06/14 06:05:54;;;;;;;10.35;3.38;;;15.40;99.90;;;;;;4993451;28;20160;-68
2022/06/14 06:08:45;;;;;;;14.35;3.30;;;15.40;99.90;;;;;;4991684;28;20030;-68
2022/06/14 06:11:14;;;;;;;9.25;2.47;;;15.50;99.90;;;;;;4982118;28;20156;-69
2022/06/14 06:13:48;;;;;;;10.48;3.05;;;15.50;99.90;;;;;;4992997;28;20395;-68
2022/06/14 06:16:33;;;;;;;14.23;3.03;;;15.50;99.90;;;;;;4993152;28;20035;-69
2022/06/14 06:19:07;;;;;;;10.13;2.50;;;15.50;99.90;;;;;;4992193;28;20546;-68
2022/06/14 06:21:37;;;;;;;7.30;2.75;;;15.50;99.90;;;;;;4993186;28;20605;-68
2022/06/14 06:24:15;;;;;;;10.60;3.45;;;15.50;99.90;;;;;;4992851;28;20026;-68
2022/06/14 06:26:44;;;;;;;9.13;3.05;;;15.60;99.90;;;;;;4992843;28;20029;-68
2022/06/14 06:29:17;;;;;;;12.02;3.30;;;15.50;99.90;;;;;;4987329;28;20062;-68
2022/06/14 06:31:46;;;;;;;11.88;3.90;;;15.60;99.90;;;;;;4973303;28;20387;-68
2022/06/14 06:34:14;;;;;;;14.57;5.22;;;15.60;99.90;;;;;;4972680;28;20026;-68
2022/06/14 06:37:06;;;;;;;12.73;4.80;;;15.60;99.90;;;;;;4972988;28;20118;-69
2022/06/14 06:39:43;;;;;;;10.05;3.30;;;15.70;99.90;;;;;;4972743;28;20129;-69
2022/06/14 06:42:35;;;;;;;11.77;3.15;;;15.70;99.90;;;;;;4973306;28;20057;-68
2022/06/14 06:45:13;;;;;;;10.23;3.60;;;15.70;99.90;;;;;;5003249;23;20058;-84
2022/06/14 06:47:48;;;;;;;9.93;2.85;;;15.80;99.90;;;;;;5005408;28;20057;-84
2022/06/14 06:50:24;;;;;;;12.05;3.70;;;15.70;99.80;;;;;;4991746;28;20124;-84
2022/06/14 06:53:10;;;;;;;9.32;2.97;;;15.70;99.90;;;;;;4990725;28;20069;-87
2022/06/14 06:55:45;;;;;;;10.00;2.90;;;15.70;99.70;;;;;;4990722;28;20037;-88
2022/06/14 06:58:27;;;;;;;10.95;2.78;;;15.80;99.90;;;;;;4974496;28;20411;-87
2022/06/14 07:00:59;;;;;;;10.65;2.70;;;15.80;99.90;;;;;;4991082;28;20034;-87
2022/06/14 07:03:46;;;;;;;11.43;2.92;;;15.90;99.50;;;;;;4974153;28;20336;-85
2022/06/14 07:06:28;;;;;;;11.43;3.35;;;15.90;99.20;;;;;;4985833;28;20030;-83
2022/06/14 07:09:45;;;;;;;11.27;3.20;;;15.90;99.50;;;;;;4989169;28;20027;-84
2022/06/14 07:12:27;;;;;;;9.90;2.80;;;16.00;99.10;;;;;;4947507;28;20104;-83
2022/06/14 07:15:00;;;;;;;8.88;2.38;;;16.00;98.30;;;;;;4993015;28;20167;-89
2022/06/14 07:17:45;;;;;;;11.00;2.47;;;16.00;98.40;;;;;;4975961;28;20617;-90
2022/06/14 07:20:26;;;;;;;8.52;2.45;;;16.10;98.20;;;;;;4974244;28;20133;-87
2022/06/14 07:23:21;;;;;;;10.43;2.15;;;16.10;97.90;;;;;;4991505;28;20050;-89
2022/06/14 07:25:56;;;;;;;10.00;2.63;;;16.10;97.70;;;;;;4984354;28;20050;-91
2022/06/14 07:28:55;;;;;;;7.70;1.98;;;16.10;97.60;;;;;;4991352;28;20034;-85
2022/06/14 07:31:44;;;;;;;9.05;2.53;;;16.20;97.80;;;;;;4983238;28;20101;-90
2022/06/14 07:34:13;;;;;;;9.23;2.58;;;16.20;98.00;;;;;;4968972;28;20147;-85
2022/06/14 07:36:49;;;;;;;13.32;2.65;;;16.30;98.30;;;;;;4989808;28;20042;-84
2022/06/14 07:40:02;;;;;;;11.38;2.78;;;16.30;97.50;;;;;;4990922;28;20038;-87
2022/06/14 07:42:57;;;;;;;10.63;2.85;;;16.30;97.90;;;;;;4941035;28;20087;-83
2022/06/14 07:45:28;;;;;;;10.07;2.92;;;16.30;97.60;;;;;;4967600;28;20061;-84
2022/06/14 07:48:37;;;;;;;14.32;3.67;;;16.30;97.60;;;;;;4966860;28;20038;-82
2022/06/14 07:51:25;;;;;;;15.77;3.92;;;16.30;97.70;;;;;;4944899;28;20051;-84
2022/06/14 07:54:13;;;;;;;16.05;4.85;;;16.30;97.80;;;;;;4969592;28;20047;-83
2022/06/14 07:57:15;;;;;;;17.90;5.32;;;16.30;97.70;;;;;;4961430;28;20101;-88
2022/06/14 08:01:07;;;;;;;22.70;9.80;;;16.40;97.10;;;;;;4967852;28;20635;-87
2022/06/14 08:02:52;;;;;;;17.83;6.32;;;16.40;97.00;;;;;;4965779;28;20092;-88
2022/06/14 08:05:21;;;;;;;;;;;16.50;97.40;;;;;;4969165;28;20041;-87
2022/06/14 08:07:50;;;;;;;15.25;5.30;;;16.50;96.80;;;;;;4950410;28;19917;-87
2022/06/14 08:10:24;;;;;;;16.55;6.28;;;16.60;96.70;;;;;;4967417;28;20030;-87
2022/06/14 08:12:56;;;;;;;11.75;5.50;;;16.70;96.00;;;;;;4970072;28;20053;-87
2022/06/14 08:15:27;;;;;;;15.75;5.78;;;16.70;95.90;;;;;;4953593;28;20499;-88
2022/06/14 08:18:02;;;;;;;15.32;5.97;;;16.80;95.70;;;;;;4969088;28;20030;-86
2022/06/14 08:20:30;;;;;;;15.55;6.15;;;16.80;95.70;;;;;;4970784;28;20045;-87
2022/06/14 08:23:01;;;;;;;12.27;5.47;;;16.80;95.70;;;;;;4970574;28;20106;-88
2022/06/14 08:25:34;;;;;;;11.00;5.18;;;16.80;95.40;;;;;;4970898;28;20035;-88
2022/06/14 08:28:06;;;;;;;15.95;7.00;;;16.80;95.60;;;;;;4968827;28;20453;-88
2022/06/14 08:31:04;;;;;;;15.40;4.72;;;16.80;94.90;;;;;;4970937;28;20027;-88
2022/06/14 08:33:34;;;;;;;12.15;5.10;;;16.80;95.10;;;;;;4968018;28;20039;-87
2022/06/14 08:36:06;;;;;;;14.82;5.70;;;16.70;95.10;;;;;;4970501;28;20066;-88
2022/06/14 08:38:40;;;;;;;10.90;4.40;;;16.80;95.40;;;;;;4968867;28;20038;-87
2022/06/14 08:41:14;;;;;;;11.55;5.03;;;16.70;95.60;;;;;;4971254;28;20500;-87
2022/06/14 08:43:45;;;;;;;11.93;5.00;;;16.70;95.80;;;;;;4969253;28;20035;-87
2022/06/14 08:46:21;;;;;;;16.10;5.47;;;16.70;95.30;;;;;;4970608;28;20031;-87
2022/06/14 08:49:32;;;;;;;16.83;5.88;;;16.70;95.50;;;;;;4967687;28;20023;-87
2022/06/14 08:52:26;;;;;;;12.35;5.00;;;16.60;95.50;;;;;;4970783;28;20085;-87
2022/06/14 08:55:02;;;;;;;22.42;5.53;;;16.60;95.60;;;;;;4968913;28;20041;-87
2022/06/14 08:58:00;;;;;;;12.15;4.88;;;16.60;95.80;;;;;;4970334;28;20473;-87
2022/06/14 09:01:21;;;;;;;12.25;5.65;;;16.60;95.80;;;;;;4969197;28;20475;-86
2022/06/14 09:04:24;;;;;;;15.02;5.72;;;16.60;95.30;;;;;;4925605;28;20435;-87
2022/06/14 09:07:27;;;;;;;12.23;4.55;;;16.70;94.90;;;;;;4968692;28;20084;-87
2022/06/14 09:10:27;;;;;;;12.07;5.80;;;16.80;94.80;;;;;;4968613;28;20483;-88
2022/06/14 09:13:11;;;;;;;24.55;6.40;;;16.90;94.80;;;;;;4969150;28;20447;-87
2022/06/14 09:16:05;;;;;;;11.75;5.35;;;17.00;94.40;;;;;;4970218;28;20038;-87
2022/06/14 09:18:56;;;;;;;9.57;5.15;;;17.10;93.50;;;;;;4969663;28;20030;-88
2022/06/14 09:21:41;;;;;;;12.25;4.80;;;17.10;92.70;;;;;;4970834;28;20233;-87
2022/06/14 09:24:28;;;;;;;11.30;4.45;;;17.20;92.80;;;;;;4974051;28;20475;-87
2022/06/14 09:27:06;;;;;;;12.80;5.28;;;17.30;92.90;;;;;;4973185;28;20034;-87
2022/06/14 09:29:38;;;;;;;15.35;4.80;;;17.30;92.90;;;;;;4972595;28;20069;-87
2022/06/14 09:32:22;;;;;;;10.32;4.80;;;17.30;92.70;;;;;;4972883;28;20026;-86
2022/06/14 09:35:19;;;;;;;12.63;5.20;;;17.40;92.80;;;;;;4955371;28;20042;-86
2022/06/14 09:38:03;;;;;;;11.32;4.75;;;17.30;92.30;;;;;;4973384;28;20039;-87
2022/06/14 09:40:49;;;;;;;13.18;5.13;;;17.30;92.20;;;;;;4972789;28;20030;-87
2022/06/14 09:43:29;;;;;;;11.95;5.32;;;17.30;92.40;;;;;;4973508;28;20063;-87
2022/06/14 09:46:16;;;;;;;16.83;7.07;;;17.30;92.50;;;;;;4973560;28;20404;-87
2022/06/14 09:49:20;;;;;;;20.17;8.13;;;17.30;92.80;;;;;;4955165;28;20101;-86
2022/06/14 09:52:19;;;;;;;16.20;7.93;;;17.30;92.80;;;;;;4951587;29;20118;-87
2022/06/14 09:55:20;;;;;;;16.13;8.05;;;17.30;93.00;;;;;;4951685;29;20081;-87
2022/06/14 09:58:23;;;;;;;15.63;8.60;;;17.30;92.90;;;;;;4943207;28;20120;-91
2022/06/14 10:00:57;;;;;;;18.27;9.25;;;17.20;92.90;;;;;;4971831;28;20035;-84
2022/06/14 10:03:51;;;;;;;19.20;8.50;;;17.20;92.40;;;;;;4972192;28;20088;-82
2022/06/14 10:06:58;;;;;;;15.77;7.90;;;17.30;92.50;;;;;;4971999;28;20034;-82
2022/06/14 10:09:42;;;;;;;15.05;8.68;;;17.40;92.70;;;;;;4955395;28;20435;-82
2022/06/14 10:12:34;;;;;;;17.88;8.35;;;17.40;92.80;;;;;;4973623;28;20038;-82
2022/06/14 10:15:18;;;;;;;19.48;9.27;;;17.40;92.50;;;;;;4973579;28;20155;-82
2022/06/14 10:17:56;;;;;;;21.88;10.65;;;17.50;92.40;;;;;;4971748;28;20046;-81
2022/06/14 10:20:37;;;;;;;17.48;9.90;;;17.50;92.10;;;;;;4971965;28;20043;-82
2022/06/14 10:23:31;;;;;;;19.00;9.95;;;17.50;92.40;;;;;;4973112;28;20505;-81
2022/06/14 10:29:03;;;;;;;15.93;9.50;;;17.70;92.10;;;;;;4972508;28;20034;-82
2022/06/14 10:31:53;;;;;;;24.15;11.48;;;17.70;92.20;;;;;;4971694;28;20445;-81
2022/06/14 10:34:37;;;;;;;22.70;11.00;;;17.70;91.10;;;;;;4971420;28;20034;-81
2022/06/14 10:37:24;;;;;;;19.15;11.20;;;17.70;90.90;;;;;;4972758;28;20027;-81
2022/06/14 10:40:22;;;;;;;22.63;10.32;;;17.70;91.00;;;;;;4972668;28;20062;-81
2022/06/14 10:42:55;;;;;;;19.38;9.50;;;17.70;91.10;;;;;;4972698;28;20033;-81
2022/06/14 10:45:35;;;;;;;14.48;8.55;;;17.70;91.10;;;;;;4971443;28;20043;-82
2022/06/14 10:48:34;;;;;;;13.55;7.97;;;17.70;91.00;;;;;;4970237;28;20070;-81
2022/06/14 10:51:06;;;;;;;25.23;10.38;;;17.70;91.20;;;;;;4972902;28;20042;-81
2022/06/14 10:53:42;;;;;;;21.80;9.77;;;17.80;91.10;;;;;;4972547;28;20039;-81
2022/06/14 10:56:49;;;;;;;16.80;8.65;;;17.90;91.00;;;;;;4972117;28;20035;-81
2022/06/14 10:59:52;;;;;;;15.95;7.53;;;17.90;91.20;;;;;;4971990;28;20039;-81
2022/06/14 11:02:57;;;;;;;16.98;7.22;;;17.90;90.50;;;;;;4972167;28;20038;-81
2022/06/14 11:05:31;;;;;;;16.70;8.02;;;17.90;90.50;;;;;;4950295;28;20028;-81
2022/06/14 11:08:12;;;;;;;12.25;6.55;;;17.90;90.80;;;;;;4949884;29;20673;-81
2022/06/14 11:10:49;;;;;;;12.20;5.63;;;17.90;90.80;;;;;;4955876;28;20046;-81
2022/06/14 11:13:26;;;;;;;16.55;6.28;;;17.90;91.00;;;;;;4972129;28;20031;-82
2022/06/14 11:16:07;;;;;;;13.80;5.97;;;17.90;90.70;;;;;;4971867;28;20022;-82
2022/06/14 11:18:44;;;;;;;11.95;5.35;;;17.90;90.50;;;;;;4970484;28;20045;-82
2022/06/14 11:21:48;;;;;;;12.23;5.35;;;18.00;90.70;;;;;;4970316;28;20030;-81
2022/06/14 11:24:19;;;;;;;11.57;4.55;;;18.00;90.30;;;;;;4972058;28;20101;-81
2022/06/14 11:27:10;;;;;;;8.80;4.05;;;18.00;90.70;;;;;;4972104;28;20462;-81
2022/06/14 11:29:50;;;;;;;11.80;4.25;;;18.00;90.90;;;;;;4971242;28;20504;-81
2022/06/14 11:32:34;;;;;;;8.60;4.20;;;18.10;90.70;;;;;;4970419;28;20046;-82
2022/06/14 11:35:18;;;;;;;18.48;4.90;;;18.10;90.20;;;;;;4974928;28;20030;-81
2022/06/14 11:38:05;;;;;;;11.65;5.10;;;18.20;89.30;;;;;;4971313;28;20487;-82
2022/06/14 11:40:42;;;;;;;10.10;4.60;;;18.20;88.00;;;;;;4971144;28;20089;-84
2022/06/14 11:43:32;;;;;;;8.88;3.85;;;18.20;88.30;;;;;;4971390;28;20320;-87
2022/06/14 11:46:05;;;;;;;9.27;4.18;;;18.20;88.60;;;;;;4969106;28;20043;-87
2022/06/14 11:48:53;;;;;;;8.38;3.60;;;18.30;89.10;;;;;;4968979;28;20448;-87
2022/06/14 11:51:44;;;;;;;12.27;4.72;;;18.40;88.00;;;;;;4971251;28;20113;-88
2022/06/14 11:54:19;;;;;;;24.63;5.85;;;18.40;86.30;;;;;;4969899;28;20173;-87
2022/06/14 11:57:20;;;;;;;14.57;3.83;;;18.40;86.30;;;;;;4971546;28;20124;-88
2022/06/14 12:00:03;;;;;;;8.05;3.05;;;18.50;87.00;;;;;;4969573;28;20098;-87
2022/06/14 12:02:57;;;;;;;6.88;2.60;;;18.50;86.80;;;;;;4968833;28;20037;-88
2022/06/14 12:05:28;;;;;;;7.38;2.60;;;18.60;86.80;;;;;;4971304;28;20080;-87
2022/06/14 12:08:01;;;;;;;7.65;2.78;;;18.60;84.30;;;;;;4970766;28;20114;-87
2022/06/14 12:10:50;;;;;;;11.20;3.40;;;18.60;84.00;;;;;;4970403;28;20619;-87
2022/06/14 12:13:34;;;;;;;10.75;4.03;;;18.80;84.30;;;;;;4969365;28;20031;-86
2022/06/14 12:16:21;;;;;;;9.63;3.15;;;18.90;84.50;;;;;;4970826;28;20062;-88
2022/06/14 12:19:00;;;;;;;6.38;2.63;;;18.90;83.30;;;;;;4968467;28;20035;-87
2022/06/14 12:21:37;;;;;;;7.75;3.00;;;19.00;81.80;;;;;;4970606;28;20031;-86
2022/06/14 12:24:11;;;;;;;8.85;3.05;;;19.10;82.70;;;;;;4970828;28;20030;-85
2022/06/14 12:26:47;;;;;;;7.03;2.88;;;19.20;82.90;;;;;;4970800;28;20147;-86
2022/06/14 12:29:15;;;;;;;6.82;2.95;;;19.30;82.90;;;;;;4970690;28;20031;-86
2022/06/14 12:32:12;;;;;;;11.98;3.47;;;19.40;83.70;;;;;;4969010;28;20551;-87
2022/06/14 12:34:47;;;;;;;7.30;2.67;;;19.50;81.90;;;;;;4952536;28;20077;-87
2022/06/14 12:37:37;;;;;;;8.00;2.60;;;19.70;81.70;;;;;;4969356;28;20065;-85
2022/06/14 12:40:16;;;;;;;6.43;2.33;;;19.80;81.90;;;;;;4969042;28;20105;-85
2022/06/14 12:42:54;;;;;;;10.63;3.15;;;20.00;81.00;;;;;;4952742;28;20030;-85
2022/06/14 12:45:27;;;;;;;7.00;2.97;;;20.10;80.60;;;;;;4969064;28;20128;-87
2022/06/14 12:51:26;;;;;;;8.98;2.63;;;20.40;79.10;;;;;;4975000;23;20403;-67
2022/06/14 12:53:58;;;;;;;5.72;2.15;;;20.50;79.10;;;;;;4971025;28;20049;-66
2022/06/14 12:56:59;;;;;;;8.07;2.97;;;20.60;78.30;;;;;;4971335;28;20031;-67
2022/06/14 13:00:02;;;;;;;8.63;1.95;;;20.60;76.00;;;;;;4953771;29;20274;-66
2022/06/14 13:02:40;;;;;;;7.55;2.50;;;20.60;76.30;;;;;;4954840;29;20043;-67
2022/06/14 13:05:08;;;;;;;7.38;2.45;;;20.70;76.90;;;;;;4955759;28;20368;-67
2022/06/14 13:07:43;;;;;;;7.18;2.15;;;20.60;75.80;;;;;;4955284;28;20023;-67
2022/06/14 13:10:35;;;;;;;5.80;1.85;;;20.60;75.90;;;;;;4955569;28;20058;-67
2022/06/14 13:13:07;;;;;;;6.60;2.05;;;20.50;75.30;;;;;;4955998;29;20094;-67
2022/06/14 13:16:08;;;;;;;8.60;2.03;;;20.50;75.50;;;;;;4954776;28;20210;-67
2022/06/14 13:18:40;;;;;;;6.60;2.63;;;20.40;77.10;;;;;;4954643;28;20043;-67
2022/06/14 13:21:18;;;;;;;7.53;2.65;;;20.30;76.40;;;;;;4955438;29;20042;-67
2022/06/14 13:24:00;;;;;;;7.93;2.03;;;20.30;76.60;;;;;;4956933;28;20400;-67
2022/06/14 13:26:47;;;;;;;7.50;2.47;;;20.20;76.70;;;;;;4957565;28;20094;-66
2022/06/14 13:29:22;;;;;;;5.13;2.00;;;20.10;77.50;;;;;;4954613;29;20040;-67
2022/06/14 13:32:09;;;;;;;9.35;2.20;;;20.10;78.00;;;;;;4955117;28;20224;-66
2022/06/14 13:35:02;;;;;;;9.50;2.50;;;20.00;78.50;;;;;;4952996;29;20055;-67
2022/06/14 13:37:45;;;;;;;8.50;2.53;;;20.00;76.90;;;;;;4954635;28;20039;-66
2022/06/14 13:40:26;;;;;;;12.00;2.72;;;20.00;78.10;;;;;;4954925;28;20037;-68
2022/06/14 13:43:01;;;;;;;6.45;2.30;;;20.00;78.40;;;;;;4954564;29;20059;-68
2022/06/14 13:45:46;;;;;;;8.00;2.58;;;20.00;77.90;;;;;;4955227;28;20036;-68
2022/06/14 13:48:40;;;;;;;6.78;2.47;;;20.00;78.50;;;;;;4954224;28;20027;-68
2022/06/14 13:51:19;;;;;;;5.20;1.90;;;20.10;79.00;;;;;;4954706;28;20043;-68
2022/06/14 13:53:53;;;;;;;9.40;3.03;;;20.20;78.70;;;;;;4954492;28;20039;-68
2022/06/14 13:56:24;;;;;;;8.13;2.30;;;20.30;77.00;;;;;;4954868;28;20499;-68
2022/06/14 13:59:05;;;;;;;6.70;2.70;;;20.50;77.20;;;;;;4954753;28;20035;-68
2022/06/14 14:01:37;;;;;;;6.93;2.13;;;20.50;75.20;;;;;;4954292;28;20059;-68
2022/06/14 14:04:24;;;;;;;7.57;2.72;;;20.80;75.50;;;;;;4953795;28;20035;-68
2022/06/14 14:07:09;;;;;;;11.90;3.20;;;20.90;74.70;;;;;;4954197;28;20613;-67